Time;durP1;ratioP1;P1;durP2;ratioP2;P2;SDS_P1;SDS_P2;PMS_P1;PMS_P2;Temp;Humidity;BMP_temperature;BMP_pressure;BME280_temperature;BME280_humidity;BME280_pressure;Samples;Min_cycle;Max_cycle;Signal;HPM_P1;HPM_P2
2022/08/25 00:00:21;;;;;;;1.17;0.57;;;;;;;28.26;46.42;98594.69;2097920;28;20639;-47
2022/08/25 00:01:26;;;;;;;0.50;0.50;;;;;;;28.25;46.48;98593.06;2098877;28;20111;-48
2022/08/25 00:02:27;;;;;;;0.45;0.38;;;;;;;28.27;46.34;98598.22;2099867;28;20052;-49
2022/08/25 00:03:29;;;;;;;0.88;0.70;;;;;;;28.26;46.41;98608.31;2096967;28;20041;-47
2022/08/25 00:04:30;;;;;;;0.60;0.30;;;;;;;28.26;46.24;98608.31;2096650;28;20043;-49
2022/08/25 00:05:32;;;;;;;1.27;1.08;;;;;;;28.26;46.35;98604.78;2095409;28;20079;-50
2022/08/25 00:06:33;;;;;;;0.80;0.63;;;;;;;28.26;46.40;98605.59;2097207;28;20045;-46
2022/08/25 00:07:36;;;;;;;0.60;0.60;;;;;;;28.26;46.17;98611.06;2100230;28;20048;-47
2022/08/25 00:08:37;;;;;;;0.68;0.68;;;;;;;28.25;46.40;98605.84;2097484;28;20040;-46
2022/08/25 00:09:39;;;;;;;0.80;0.63;;;;;;;28.27;46.04;98606.41;2096177;28;20048;-50
2022/08/25 00:10:41;;;;;;;1.30;0.95;;;;;;;28.26;46.28;98613.78;2097235;28;20049;-47
2022/08/25 00:11:43;;;;;;;0.60;0.60;;;;;;;28.25;46.35;98609.41;2101081;28;20127;-47
2022/08/25 00:12:44;;;;;;;0.70;0.50;;;;;;;28.24;46.25;98605.03;2096447;28;20052;-48
2022/08/25 00:13:49;;;;;;;1.92;0.70;;;;;;;28.26;46.42;98612.97;2096702;28;20050;-47
2022/08/25 00:14:51;;;;;;;0.43;0.40;;;;;;;28.22;46.39;98606.38;2100378;28;20579;-49
2022/08/25 00:15:52;;;;;;;0.55;0.55;;;;;;;28.22;46.51;98615.41;2101635;28;20445;-46
2022/08/25 00:16:54;;;;;;;1.02;0.60;;;;;;;28.24;46.41;98607.75;2098443;28;20140;-50
2022/08/25 00:17:56;;;;;;;0.80;0.60;;;;;;;28.24;46.33;98610.50;2097706;28;20067;-46
2022/08/25 00:19:00;;;;;;;0.50;0.50;;;;;;;28.26;46.55;98611.06;2099718;28;20048;-46
2022/08/25 00:20:02;;;;;;;1.85;0.73;;;;;;;28.23;46.07;98610.78;2098143;28;20051;-47
2022/08/25 00:21:04;;;;;;;1.55;0.70;;;;;;;28.24;46.57;98612.41;2100755;28;20750;-46
2022/08/25 00:22:08;;;;;;;0.98;0.68;;;;;;;28.24;46.18;98607.75;2100653;28;20055;-51
2022/08/25 00:23:10;;;;;;;0.40;0.40;;;;;;;28.21;46.26;98608.31;2098961;28;20052;-50
2022/08/25 00:24:13;;;;;;;0.40;0.40;;;;;;;28.24;46.12;98607.75;2099031;28;20078;-47
2022/08/25 00:25:14;;;;;;;0.75;0.70;;;;;;;28.23;46.30;98603.41;2097952;28;20052;-48
2022/08/25 00:26:17;;;;;;;0.60;0.60;;;;;;;28.26;46.28;98613.78;2101139;28;20597;-49
2022/08/25 00:27:17;;;;;;;2.05;0.57;;;;;;;28.23;46.41;98614.31;2099329;28;20059;-49
2022/08/25 00:28:19;;;;;;;0.68;0.57;;;;;;;28.26;46.40;98611.06;2098074;28;21324;-51
2022/08/25 00:29:21;;;;;;;0.52;0.52;;;;;;;28.22;46.16;98612.69;2098879;28;20764;-46
2022/08/25 00:30:23;;;;;;;2.13;0.50;;;;;;;28.24;46.12;98612.41;2098128;28;20055;-47
2022/08/25 00:31:24;;;;;;;1.08;0.70;;;;;;;28.25;46.29;98620.31;2098092;28;20044;-48
2022/08/25 00:32:26;;;;;;;2.00;0.82;;;;;;;28.24;46.16;98613.22;2100202;28;20131;-52
2022/08/25 00:33:29;;;;;;;0.40;0.40;;;;;;;28.23;46.34;98613.50;2098673;28;20079;-49
2022/08/25 00:34:34;;;;;;;0.75;0.60;;;;;;;28.22;46.29;98618.13;2100497;28;20055;-46
2022/08/25 00:35:35;;;;;;;0.57;0.57;;;;;;;28.22;46.02;98615.41;2100542;28;20045;-51
2022/08/25 00:36:37;;;;;;;0.70;0.68;;;;;;;28.22;46.17;98617.28;2100514;28;20437;-48
2022/08/25 00:37:38;;;;;;;0.65;0.65;;;;;;;28.22;46.28;98623.59;2099724;28;20056;-50
2022/08/25 00:38:43;;;;;;;0.77;0.65;;;;;;;28.23;46.29;98618.97;2099669;28;20076;-46
2022/08/25 00:39:44;;;;;;;0.63;0.63;;;;;;;28.22;46.62;98631.78;2104618;28;20043;-46
2022/08/25 00:41:04;;;;;;;0.70;0.70;;;;;;;28.24;46.12;98623.31;2107717;28;20767;-47
2022/08/25 00:42:07;;;;;;;1.63;0.68;;;;;;;28.19;46.40;98620.56;2108064;28;20058;-51
2022/08/25 00:43:08;;;;;;;0.75;0.75;;;;;;;28.20;46.31;98620.31;2106441;28;20044;-49
2022/08/25 00:44:12;;;;;;;2.50;0.80;;;;;;;28.20;46.54;98616.75;2107671;27;20403;-46
2022/08/25 00:45:14;;;;;;;0.60;0.50;;;;;;;28.20;46.62;98616.75;2109016;28;20048;-47
2022/08/25 00:46:20;;;;;;;0.60;0.60;;;;;;;28.21;46.11;98621.94;2108065;28;20082;-48
2022/08/25 00:47:21;;;;;;;0.50;0.40;;;;;;;28.21;46.16;98627.38;2107855;28;20044;-47
2022/08/25 00:48:22;;;;;;;0.55;0.55;;;;;;;28.22;46.07;98623.59;2108455;27;20058;-49
2022/08/25 00:49:28;;;;;;;1.98;0.70;;;;;;;28.22;46.20;98622.75;2104274;27;20048;-47
2022/08/25 00:50:32;;;;;;;0.52;0.40;;;;;;;28.19;46.32;98624.09;2107319;28;20044;-48
2022/08/25 00:51:39;;;;;;;1.02;0.90;;;;;;;28.20;46.14;98623.03;2105279;28;20048;-47
2022/08/25 00:52:45;;;;;;;0.45;0.40;;;;;;;28.20;46.24;98622.22;2107389;28;20506;-47
2022/08/25 00:53:47;;;;;;;0.60;0.60;;;;;;;28.19;46.30;98620.56;2104841;28;20056;-49
2022/08/25 00:54:52;;;;;;;0.57;0.57;;;;;;;28.19;46.30;98624.09;2106412;28;20616;-47
2022/08/25 00:55:53;;;;;;;0.73;0.52;;;;;;;28.21;46.32;98623.84;2106627;28;20059;-50
2022/08/25 00:56:58;;;;;;;1.13;0.95;;;;;;;28.20;46.30;98628.50;2105363;28;20048;-46
2022/08/25 00:58:06;;;;;;;1.40;0.80;;;;;;;28.19;46.30;98626.81;2107907;28;20122;-51
2022/08/25 00:59:08;;;;;;;1.25;0.80;;;;;;;28.19;46.33;98629.56;2106631;28;20048;-50
2022/08/25 01:00:14;;;;;;;1.13;0.73;;;;;;;28.20;46.29;98623.03;2108329;28;20753;-49
2022/08/25 01:01:15;;;;;;;1.35;0.95;;;;;;;28.18;46.46;98627.94;2105417;28;20447;-47
2022/08/25 01:02:17;;;;;;;0.60;0.60;;;;;;;28.20;46.36;98628.50;2108128;28;20535;-46
2022/08/25 01:03:20;;;;;;;1.05;0.70;;;;;;;28.20;46.34;98633.94;2106108;28;20074;-48
2022/08/25 01:04:21;;;;;;;0.70;0.70;;;;;;;28.20;46.13;98631.22;2104991;27;20044;-48
2022/08/25 01:05:23;;;;;;;0.63;0.55;;;;;;;28.19;46.11;98631.47;2105325;28;20047;-50
2022/08/25 01:06:24;;;;;;;0.45;0.45;;;;;;;28.20;46.29;98636.66;2108087;28;20051;-47
2022/08/25 01:07:26;;;;;;;1.00;0.73;;;;;;;28.21;46.17;98634.75;2108889;28;20048;-46
2022/08/25 01:08:31;;;;;;;0.70;0.70;;;;;;;28.17;46.24;98637.22;2109229;28;20895;-51
2022/08/25 01:09:35;;;;;;;2.35;0.50;;;;;;;28.17;46.32;98630.94;2105988;28;20051;-48
2022/08/25 01:10:40;;;;;;;1.00;0.57;;;;;;;28.19;46.22;98635.00;2107482;28;20051;-50
2022/08/25 01:11:44;;;;;;;0.38;0.38;;;;;;;28.18;46.16;98627.94;2104236;28;20957;-47
2022/08/25 01:12:45;;;;;;;0.85;0.85;;;;;;;28.19;46.00;98639.66;2109640;28;20089;-47
2022/08/25 01:13:51;;;;;;;0.80;0.80;;;;;;;28.18;46.19;98633.38;2106672;27;20763;-49
2022/08/25 01:14:54;;;;;;;0.85;0.60;;;;;;;28.17;46.45;98634.47;2104981;27;20138;-48
2022/08/25 01:15:57;;;;;;;1.13;0.68;;;;;;;28.17;46.25;98634.47;2106414;28;20079;-48
2022/08/25 01:16:58;;;;;;;0.68;0.60;;;;;;;28.15;46.29;98631.19;2106269;28;20214;-47
2022/08/25 01:18:02;;;;;;;0.82;0.68;;;;;;;28.16;46.38;98627.38;2104258;28;20616;-50
2022/08/25 01:19:04;;;;;;;1.27;0.88;;;;;;;28.16;46.27;98627.38;2104809;28;20082;-48
2022/08/25 01:20:06;;;;;;;1.45;0.85;;;;;;;28.17;46.18;98628.22;2106102;28;20071;-49
2022/08/25 01:21:09;;;;;;;1.00;0.75;;;;;;;28.18;46.21;98629.84;2103828;28;20425;-48
2022/08/25 01:22:11;;;;;;;1.05;0.88;;;;;;;28.17;46.34;98617.31;2105752;27;20092;-49
2022/08/25 01:23:12;;;;;;;1.33;0.90;;;;;;;28.17;46.15;98625.50;2104924;27;20048;-49
2022/08/25 01:24:23;;;;;;;1.67;0.70;;;;;;;28.18;46.18;98624.38;2107557;27;20054;-46
2022/08/25 01:25:34;;;;;;;1.38;0.85;;;;;;;28.15;46.25;98617.56;2108728;27;20047;-48
2022/08/25 01:26:36;;;;;;;0.73;0.73;;;;;;;28.15;46.08;98627.66;2109022;28;20051;-48
2022/08/25 01:27:37;;;;;;;0.70;0.70;;;;;;;28.15;46.35;98623.00;2105420;28;20563;-47
2022/08/25 01:29:19;;;;;;;1.65;0.90;;;;;;;28.15;46.33;98623.00;2106657;28;20036;-45
2022/08/25 01:30:01;;;;;;;1.50;0.57;;;;;;;28.12;46.27;98617.28;2104193;28;20112;-47
2022/08/25 01:31:04;;;;;;;0.90;0.70;;;;;;;28.14;46.33;98615.94;2103668;28;20048;-47
2022/08/25 01:32:12;;;;;;;1.73;0.88;;;;;;;28.14;46.11;98617.81;2105002;28;20131;-48
2022/08/25 01:33:16;;;;;;;0.85;0.80;;;;;;;28.12;46.48;98617.28;2105678;28;20087;-47
2022/08/25 01:34:18;;;;;;;1.13;0.70;;;;;;;28.12;46.21;98615.38;2106268;28;20096;-47
2022/08/25 01:35:20;;;;;;;0.75;0.73;;;;;;;28.13;46.15;98619.72;2109291;28;20075;-47
2022/08/25 01:36:24;;;;;;;0.90;0.63;;;;;;;28.12;46.06;98615.38;2109904;28;20582;-47
2022/08/25 01:37:26;;;;;;;0.82;0.68;;;;;;;28.11;46.21;98621.91;2104766;28;20552;-47
2022/08/25 01:38:26;;;;;;;0.95;0.95;;;;;;;28.14;46.42;98618.66;2106627;28;20055;-48
2022/08/25 01:39:32;;;;;;;1.58;0.90;;;;;;;28.15;46.36;98614.00;2104065;28;20073;-47
2022/08/25 01:40:34;;;;;;;0.75;0.70;;;;;;;28.13;46.33;98610.72;2103625;28;20044;-47
2022/08/25 01:41:44;;;;;;;0.95;0.40;;;;;;;28.14;46.14;98610.47;2108326;28;20888;-49
2022/08/25 01:42:56;;;;;;;0.80;0.60;;;;;;;28.12;45.93;98612.63;2105909;28;20665;-49
2022/08/25 01:43:58;;;;;;;0.80;0.73;;;;;;;28.13;46.33;98613.47;2106982;28;20130;-48
2022/08/25 01:44:59;;;;;;;0.63;0.63;;;;;;;28.12;46.16;98614.56;2110133;28;20052;-45
2022/08/25 01:46:01;;;;;;;0.63;0.60;;;;;;;28.12;46.28;98607.19;2104056;27;20040;-48
2022/08/25 01:47:02;;;;;;;0.75;0.75;;;;;;;28.12;46.24;98609.09;2105016;28;20056;-48
2022/08/25 01:48:05;;;;;;;1.15;1.00;;;;;;;28.13;45.87;98608.00;2106218;28;20611;-46
2022/08/25 01:49:06;;;;;;;1.25;0.60;;;;;;;28.12;46.20;98604.47;2109154;28;20066;-47
2022/08/25 01:50:08;;;;;;;1.42;0.73;;;;;;;28.13;46.16;98610.72;2105807;28;20056;-50
2022/08/25 01:51:09;;;;;;;0.70;0.70;;;;;;;28.13;46.47;98611.53;2106997;28;20047;-48
2022/08/25 01:52:16;;;;;;;0.90;0.60;;;;;;;28.14;46.03;98604.19;2103662;28;20123;-48
2022/08/25 01:53:21;;;;;;;0.80;0.63;;;;;;;28.12;46.06;98604.47;2109452;28;20054;-46
2022/08/25 01:54:23;;;;;;;1.48;1.00;;;;;;;28.11;46.27;98608.28;2106727;28;20050;-47
2022/08/25 01:55:25;;;;;;;1.13;0.77;;;;;;;28.11;46.17;98602.84;2103317;27;20059;-47
2022/08/25 01:56:27;;;;;;;0.85;0.70;;;;;;;28.07;46.19;98612.63;2106763;28;20131;-49
2022/08/25 01:57:28;;;;;;;1.63;0.95;;;;;;;28.08;46.26;98608.78;2108224;28;20692;-49
2022/08/25 01:58:32;;;;;;;1.38;0.90;;;;;;;28.07;46.16;98612.63;2103981;28;20055;-48
2022/08/25 01:59:34;;;;;;;0.60;0.60;;;;;;;28.09;46.01;98612.38;2107452;28;20054;-46
2022/08/25 02:00:35;;;;;;;0.68;0.68;;;;;;;28.07;46.33;98612.63;2109096;28;20051;-47
2022/08/25 02:01:37;;;;;;;1.60;0.73;;;;;;;28.10;46.32;98611.25;2106363;28;20619;-46
2022/08/25 02:02:38;;;;;;;0.77;0.55;;;;;;;28.08;46.26;98611.50;2107060;27;20047;-45
2022/08/25 02:03:42;;;;;;;0.85;0.70;;;;;;;28.08;46.19;98611.50;2104498;28;20581;-47
2022/08/25 02:04:43;;;;;;;1.95;0.88;;;;;;;28.07;46.61;98612.63;2103571;28;20043;-45
2022/08/25 02:05:45;;;;;;;2.42;1.00;;;;;;;28.04;46.13;98613.16;2105802;27;20044;-46
2022/08/25 02:06:46;;;;;;;1.15;0.70;;;;;;;28.03;46.05;98606.88;2109287;27;20043;-45
2022/08/25 02:07:50;;;;;;;1.20;0.80;;;;;;;28.05;46.56;98607.44;2106661;28;20055;-46
2022/08/25 02:08:51;;;;;;;0.70;0.52;;;;;;;28.03;46.65;98604.16;2107863;28;20904;-47
2022/08/25 02:09:52;;;;;;;1.23;0.88;;;;;;;28.05;46.63;98598.41;2105709;28;20043;-48
2022/08/25 02:10:54;;;;;;;1.38;0.90;;;;;;;28.01;46.30;98602.78;2105578;28;20043;-48
2022/08/25 02:11:56;;;;;;;1.08;0.80;;;;;;;28.02;46.30;98599.78;2106664;28;20051;-46
2022/08/25 02:12:57;;;;;;;0.60;0.60;;;;;;;28.03;46.40;98606.06;2097731;28;22642;-47
2022/08/25 02:13:59;;;;;;;0.70;0.70;;;;;;;28.02;46.60;98593.50;2105863;27;20113;-46
2022/08/25 02:15:00;;;;;;;1.58;0.73;;;;;;;28.00;46.25;98601.13;2104128;27;20150;-47
2022/08/25 02:16:03;;;;;;;0.98;0.60;;;;;;;27.99;46.37;98604.94;2106170;28;20044;-47
2022/08/25 02:17:05;;;;;;;0.80;0.65;;;;;;;28.02;46.42;98601.69;2103841;28;20109;-46
2022/08/25 02:18:07;;;;;;;0.73;0.73;;;;;;;28.02;46.36;98598.97;2109233;28;20049;-47
2022/08/25 02:19:10;;;;;;;1.15;0.75;;;;;;;28.01;46.60;98597.31;2104080;27;20496;-46
2022/08/25 02:20:12;;;;;;;2.97;0.85;;;;;;;27.99;46.64;98605.75;2108112;28;20661;-47
2022/08/25 02:21:13;;;;;;;0.52;0.52;;;;;;;27.98;46.47;98603.31;2109457;27;20059;-45
2022/08/25 02:22:16;;;;;;;0.52;0.50;;;;;;;28.00;46.52;98603.84;2105736;27;20445;-47
2022/08/25 02:23:18;;;;;;;0.68;0.50;;;;;;;28.00;46.41;98607.41;2108833;28;20126;-49
2022/08/25 02:24:20;;;;;;;0.77;0.77;;;;;;;27.99;46.59;98599.50;2109937;27;20063;-47
2022/08/25 02:25:21;;;;;;;0.75;0.73;;;;;;;28.01;46.63;98608.22;2106138;28;20556;-48
2022/08/25 02:26:23;;;;;;;0.45;0.45;;;;;;;27.99;46.53;98610.41;2107821;28;20046;-45
2022/08/25 02:27:24;;;;;;;1.13;0.90;;;;;;;27.99;46.52;98610.41;2106917;28;20414;-48
2022/08/25 02:28:26;;;;;;;0.93;0.93;;;;;;;27.98;46.42;98606.84;2104439;28;20138;-47
2022/08/25 02:29:27;;;;;;;1.40;1.15;;;;;;;27.99;46.59;98607.66;2106177;28;20440;-47
2022/08/25 02:30:29;;;;;;;0.82;0.73;;;;;;;27.96;46.69;98600.84;2105265;27;20135;-47
2022/08/25 02:31:30;;;;;;;1.83;1.52;;;;;;;27.98;46.52;98604.13;2104987;28;20779;-46
2022/08/25 02:32:31;;;;;;;0.70;0.70;;;;;;;27.98;46.53;98606.03;2106578;27;20123;-46
2022/08/25 02:33:32;;;;;;;1.17;0.73;;;;;;;27.98;46.54;98608.78;2105473;28;20040;-45
2022/08/25 02:34:34;;;;;;;1.60;0.65;;;;;;;27.98;46.65;98608.78;2105101;28;20036;-47
2022/08/25 02:35:36;;;;;;;1.10;0.88;;;;;;;27.98;46.82;98603.31;2108817;28;20108;-49
2022/08/25 02:36:39;;;;;;;1.38;1.00;;;;;;;27.96;46.68;98603.56;2108707;28;20058;-51
2022/08/25 02:37:40;;;;;;;0.95;0.85;;;;;;;27.96;46.74;98602.75;2108020;28;20048;-45
2022/08/25 02:38:44;;;;;;;0.75;0.70;;;;;;;27.99;46.53;98604.94;2109744;27;20052;-46
2022/08/25 02:39:46;;;;;;;0.70;0.70;;;;;;;27.93;46.62;98598.66;2107088;28;20056;-53
2022/08/25 02:40:47;;;;;;;1.00;0.90;;;;;;;27.95;46.71;98598.41;2105115;28;20052;-49
2022/08/25 02:41:49;;;;;;;0.82;0.82;;;;;;;27.94;46.50;98604.91;2108334;28;20138;-47
2022/08/25 02:42:50;;;;;;;1.45;0.80;;;;;;;27.97;46.70;98604.38;2103588;28;20437;-45
2022/08/25 02:43:52;;;;;;;0.85;0.73;;;;;;;27.95;46.64;98601.13;2106855;28;20460;-47
2022/08/25 02:44:53;;;;;;;1.55;0.60;;;;;;;27.96;46.62;98600.84;2105427;28;20135;-50
2022/08/25 02:45:56;;;;;;;1.17;0.95;;;;;;;27.98;46.36;98603.31;2096558;28;20040;-53
2022/08/25 02:46:57;;;;;;;0.90;0.90;;;;;;;27.98;46.81;98600.59;2107855;28;20051;-45
2022/08/25 02:47:59;;;;;;;0.70;0.70;;;;;;;27.97;46.46;98602.50;2106917;28;20062;-50
2022/08/25 02:49:00;;;;;;;0.88;0.80;;;;;;;27.98;46.51;98603.31;2106924;28;20055;-50
2022/08/25 02:50:01;;;;;;;1.00;0.90;;;;;;;27.94;46.59;98597.56;2107113;28;20071;-46
2022/08/25 02:51:04;;;;;;;0.98;0.80;;;;;;;27.96;46.68;98600.03;2107700;28;20052;-47
2022/08/25 02:52:07;;;;;;;1.05;0.68;;;;;;;27.97;46.58;98604.38;2106312;28;20886;-48
2022/08/25 02:53:08;;;;;;;2.95;1.08;;;;;;;27.97;46.75;98601.66;2106866;28;20096;-48
2022/08/25 02:54:11;;;;;;;1.40;0.80;;;;;;;27.96;46.52;98603.56;2104456;27;20101;-47
2022/08/25 02:55:12;;;;;;;1.27;1.00;;;;;;;27.94;46.82;98599.47;2108876;28;20058;-47
2022/08/25 02:56:17;;;;;;;1.10;0.73;;;;;;;27.94;46.58;98602.19;2106251;28;20166;-47
2022/08/25 02:57:17;;;;;;;1.08;0.93;;;;;;;27.91;46.91;98594.56;2107820;28;20047;-46
2022/08/25 02:58:20;;;;;;;0.70;0.70;;;;;;;27.93;46.77;98595.94;2105544;28;20055;-51
2022/08/25 02:59:21;;;;;;;1.48;0.80;;;;;;;27.93;46.42;98597.84;2105865;28;20592;-47
2022/08/25 03:00:23;;;;;;;0.63;0.50;;;;;;;27.94;46.52;98596.75;2106820;28;20047;-50
2022/08/25 03:01:24;;;;;;;0.77;0.57;;;;;;;27.96;46.64;98591.84;2105840;28;20051;-46
2022/08/25 03:02:26;;;;;;;0.82;0.77;;;;;;;27.96;46.56;98591.84;2107488;28;20135;-50
2022/08/25 03:03:27;;;;;;;0.70;0.52;;;;;;;27.97;46.51;98602.50;2106009;28;20418;-48
2022/08/25 03:04:30;;;;;;;1.13;0.60;;;;;;;27.95;46.54;98595.69;2107019;28;20044;-49
2022/08/25 03:05:31;;;;;;;0.85;0.60;;;;;;;27.99;46.49;98596.78;2106860;28;20054;-51
2022/08/25 03:06:33;;;;;;;0.57;0.55;;;;;;;27.99;46.46;98594.03;2107526;28;20051;-50
2022/08/25 03:07:34;;;;;;;0.90;0.90;;;;;;;27.94;46.67;98591.28;2106615;28;20051;-49
2022/08/25 03:08:36;;;;;;;0.68;0.68;;;;;;;27.92;46.58;98588.03;2106512;28;20593;-49
2022/08/25 03:09:38;;;;;;;1.33;0.80;;;;;;;27.94;46.83;98588.56;2106371;28;20048;-48
2022/08/25 03:10:40;;;;;;;1.50;0.90;;;;;;;27.95;46.52;98587.50;2105736;28;20052;-51
2022/08/25 03:11:41;;;;;;;0.75;0.60;;;;;;;27.94;46.59;98586.66;2107155;28;20054;-47
2022/08/25 03:12:44;;;;;;;1.75;0.98;;;;;;;27.97;46.57;98588.03;2106927;28;20066;-51
2022/08/25 03:13:45;;;;;;;1.77;1.23;;;;;;;27.93;46.58;98586.94;2103690;28;20056;-47
2022/08/25 03:14:47;;;;;;;1.10;0.90;;;;;;;27.91;46.78;98586.38;2109075;27;20047;-50
2022/08/25 03:15:48;;;;;;;1.65;1.00;;;;;;;27.96;46.40;98583.69;2108446;28;20062;-47
2022/08/25 03:16:50;;;;;;;0.82;0.82;;;;;;;27.91;46.57;98587.19;2106494;28;20047;-49
2022/08/25 03:17:51;;;;;;;0.90;0.65;;;;;;;27.92;46.82;98583.41;2107971;28;20440;-47
2022/08/25 03:18:53;;;;;;;1.38;0.75;;;;;;;27.93;46.70;98581.47;2105300;28;20054;-48
2022/08/25 03:19:54;;;;;;;0.70;0.70;;;;;;;27.96;46.62;98586.41;2108242;28;20048;-46
2022/08/25 03:20:55;;;;;;;0.80;0.70;;;;;;;27.92;46.71;98580.66;2108019;28;20048;-48
2022/08/25 03:21:58;;;;;;;2.88;0.95;;;;;;;27.94;46.68;98580.38;2105795;28;20059;-49
2022/08/25 03:23:00;;;;;;;1.35;1.25;;;;;;;27.93;46.67;98585.03;2107975;28;20055;-48
2022/08/25 03:24:01;;;;;;;1.85;0.65;;;;;;;27.92;46.62;98582.59;2107802;28;20051;-51
2022/08/25 03:27:43;;;;;;;1.75;1.25;;;;;;;27.87;46.53;98575.19;2106846;28;20048;-47
2022/08/25 03:28:45;;;;;;;0.80;0.80;;;;;;;27.89;46.79;98586.66;2103913;28;20622;-47
2022/08/25 03:29:47;;;;;;;1.45;0.68;;;;;;;27.93;46.57;98579.56;2103131;28;20056;-50
2022/08/25 03:30:48;;;;;;;1.20;0.77;;;;;;;27.91;46.81;98580.91;2103956;28;20667;-47
2022/08/25 03:31:49;;;;;;;0.70;0.70;;;;;;;27.93;46.62;98584.22;2105362;28;20565;-48
2022/08/25 03:32:51;;;;;;;1.13;1.02;;;;;;;27.94;46.64;98583.09;2106863;28;20094;-48
2022/08/25 03:33:52;;;;;;;0.63;0.63;;;;;;;27.90;46.78;98577.38;2106429;28;20060;-48
2022/08/25 03:34:54;;;;;;;1.00;0.80;;;;;;;27.96;46.79;98581.75;2107544;28;20114;-49
2022/08/25 03:35:56;;;;;;;1.25;0.70;;;;;;;27.96;46.70;98587.22;2108767;28;20066;-46
2022/08/25 03:36:58;;;;;;;0.82;0.82;;;;;;;27.94;46.92;98583.94;2109099;28;20051;-47
2022/08/25 03:37:59;;;;;;;0.88;0.80;;;;;;;27.95;46.69;98585.59;2105893;28;20055;-49
2022/08/25 03:39:01;;;;;;;1.50;1.40;;;;;;;27.95;46.70;98587.50;2110976;27;20057;-51
2022/08/25 03:40:05;;;;;;;0.80;0.80;;;;;;;27.92;46.66;98585.31;2107704;27;20043;-48
2022/08/25 03:41:16;;;;;;;0.60;0.60;;;;;;;27.92;46.73;98590.75;2108106;28;20055;-50
2022/08/25 03:42:16;;;;;;;1.13;0.90;;;;;;;27.93;46.75;98585.03;2108908;28;20051;-48
2022/08/25 03:43:19;;;;;;;0.77;0.77;;;;;;;27.94;46.39;98591.28;2109356;28;20783;-49
2022/08/25 03:44:20;;;;;;;1.25;1.15;;;;;;;27.93;46.67;98593.19;2107131;28;20055;-46
2022/08/25 03:45:23;;;;;;;0.73;0.70;;;;;;;27.94;46.54;98591.28;2107822;28;20051;-46
2022/08/25 03:46:26;;;;;;;1.42;0.90;;;;;;;27.93;46.58;98595.94;2109129;28;20058;-51
2022/08/25 03:47:28;;;;;;;0.95;0.95;;;;;;;27.91;46.57;98592.63;2106976;27;20429;-52
2022/08/25 03:48:29;;;;;;;0.80;0.80;;;;;;;27.94;46.48;98594.00;2107841;28;20463;-50
2022/08/25 03:49:31;;;;;;;1.08;0.95;;;;;;;27.90;46.82;98601.91;2108840;27;20039;-47
2022/08/25 03:50:31;;;;;;;2.03;0.90;;;;;;;27.92;47.00;98598.94;2107160;28;20131;-46
2022/08/25 03:51:36;;;;;;;0.93;0.82;;;;;;;27.95;46.53;98592.94;2105907;28;20619;-47
2022/08/25 03:52:37;;;;;;;0.63;0.60;;;;;;;27.92;46.76;98593.47;2107622;28;20044;-50
2022/08/25 03:53:39;;;;;;;1.15;0.90;;;;;;;27.92;46.67;98588.84;2109176;28;20692;-48
2022/08/25 03:54:40;;;;;;;0.98;0.68;;;;;;;27.93;46.61;98592.38;2111604;28;20040;-47
2022/08/25 03:55:43;;;;;;;0.93;0.85;;;;;;;27.93;46.76;98593.19;2108110;28;20039;-50
2022/08/25 03:56:44;;;;;;;0.82;0.75;;;;;;;27.93;46.90;98595.13;2108013;28;20051;-47
2022/08/25 03:57:46;;;;;;;0.80;0.73;;;;;;;27.94;46.40;98591.28;2107971;27;20093;-50
2022/08/25 03:58:47;;;;;;;1.13;0.90;;;;;;;27.91;46.87;98594.56;2108258;28;20051;-47
2022/08/25 03:59:49;;;;;;;0.73;0.70;;;;;;;27.92;46.71;98599.75;2105906;28;20044;-48
2022/08/25 04:00:49;;;;;;;0.90;0.70;;;;;;;27.92;46.77;98588.03;2107990;28;20593;-49
2022/08/25 04:01:51;;;;;;;1.23;0.70;;;;;;;27.91;46.61;98598.09;2106786;28;20119;-47
2022/08/25 04:02:52;;;;;;;1.83;1.02;;;;;;;27.92;46.72;98588.03;2106191;28;20142;-49
2022/08/25 04:03:54;;;;;;;1.85;0.95;;;;;;;27.93;47.07;98595.13;2106825;27;20650;-46
2022/08/25 04:04:55;;;;;;;0.77;0.77;;;;;;;27.91;46.73;98591.81;2108399;28;20051;-49
2022/08/25 04:06:01;;;;;;;0.73;0.47;;;;;;;27.93;46.70;98585.03;2107562;28;20153;-48
2022/08/25 04:07:02;;;;;;;1.38;1.08;;;;;;;27.91;46.44;98583.66;2106950;28;20132;-48
2022/08/25 04:08:05;;;;;;;1.02;0.73;;;;;;;27.93;46.53;98578.75;2108940;28;20051;-50
2022/08/25 04:09:07;;;;;;;1.08;0.85;;;;;;;27.90;46.72;98582.03;2108355;27;20056;-46
2022/08/25 04:10:11;;;;;;;1.25;0.82;;;;;;;27.90;46.69;98582.03;2106969;28;20445;-48
2022/08/25 04:11:16;;;;;;;1.13;0.70;;;;;;;27.90;46.73;98571.13;2105700;28;20187;-51
2022/08/25 04:12:18;;;;;;;1.23;1.00;;;;;;;27.90;46.92;98579.28;2108281;28;20051;-46
2022/08/25 04:13:20;;;;;;;1.10;0.80;;;;;;;27.89;46.82;98583.94;2106582;28;20039;-47
2022/08/25 04:14:22;;;;;;;1.05;0.77;;;;;;;27.92;46.87;98579.84;2107719;28;20050;-50
2022/08/25 04:15:24;;;;;;;1.10;1.00;;;;;;;27.89;46.60;98583.94;2108154;28;20043;-49
2022/08/25 04:16:28;;;;;;;0.90;0.70;;;;;;;27.90;46.54;98580.09;2107436;28;20526;-48
2022/08/25 04:17:30;;;;;;;0.98;0.90;;;;;;;27.89;46.81;98573.03;2106884;28;20067;-50
2022/08/25 04:18:30;;;;;;;0.98;0.85;;;;;;;27.89;46.78;98577.63;2108536;28;20043;-49
2022/08/25 04:19:32;;;;;;;0.70;0.70;;;;;;;27.89;46.99;98578.47;2105601;28;20158;-47
2022/08/25 04:20:33;;;;;;;1.90;0.93;;;;;;;27.90;46.74;98579.28;2108239;28;20074;-48
2022/08/25 04:21:35;;;;;;;1.25;0.82;;;;;;;27.88;47.10;98584.19;2109619;28;20050;-50
2022/08/25 04:22:37;;;;;;;0.70;0.70;;;;;;;27.89;46.98;98580.34;2109854;28;20122;-49
2022/08/25 04:23:40;;;;;;;1.27;1.17;;;;;;;27.89;46.82;98588.53;2108212;28;20089;-45
2022/08/25 04:24:41;;;;;;;0.95;0.73;;;;;;;27.88;46.82;98581.47;2109259;28;20104;-51
2022/08/25 04:25:43;;;;;;;0.70;0.70;;;;;;;27.87;47.10;98586.09;2109163;27;20047;-46
2022/08/25 04:26:47;;;;;;;1.10;1.00;;;;;;;27.87;46.97;98591.53;2107362;28;20451;-51
2022/08/25 04:27:49;;;;;;;1.38;0.90;;;;;;;27.90;46.87;98592.91;2108388;28;20075;-50
2022/08/25 04:28:50;;;;;;;0.95;0.80;;;;;;;27.86;46.98;98595.38;2107375;28;20040;-50
2022/08/25 04:29:52;;;;;;;1.13;0.75;;;;;;;27.89;46.95;98604.88;2108228;27;20512;-47
2022/08/25 04:30:53;;;;;;;1.25;0.90;;;;;;;27.87;46.69;98607.09;2106548;28;20055;-46
2022/08/25 04:31:55;;;;;;;1.63;1.02;;;;;;;27.83;47.04;98604.91;2108918;28;20047;-51
2022/08/25 04:32:56;;;;;;;0.98;0.90;;;;;;;27.85;46.92;98599.97;2106936;28;20040;-48
2022/08/25 04:33:58;;;;;;;1.50;1.40;;;;;;;27.87;46.84;98598.91;2109736;27;20055;-48
2022/08/25 04:34:59;;;;;;;1.00;0.90;;;;;;;27.85;47.05;98599.97;2107876;28;20153;-52
2022/08/25 04:36:01;;;;;;;0.85;0.82;;;;;;;27.86;46.84;98603.53;2106843;28;20089;-51
2022/08/25 04:37:05;;;;;;;1.30;1.20;;;;;;;27.84;46.71;98597.53;2102392;28;20044;-50
2022/08/25 04:38:05;;;;;;;0.93;0.60;;;;;;;27.85;47.11;98596.44;2104763;28;20050;-46
2022/08/25 04:39:07;;;;;;;1.98;1.00;;;;;;;27.82;46.79;98592.34;2108065;28;20416;-53
2022/08/25 04:40:10;;;;;;;0.90;0.70;;;;;;;27.83;46.96;98596.72;2107667;27;20051;-48
2022/08/25 04:41:14;;;;;;;2.72;0.63;;;;;;;27.87;46.72;98597.00;2106853;27;20093;-49
2022/08/25 04:42:16;;;;;;;0.80;0.70;;;;;;;27.87;46.57;98590.72;2109352;28;20066;-48
2022/08/25 04:43:18;;;;;;;1.02;0.93;;;;;;;27.85;46.94;98589.06;2107692;28;20139;-49
2022/08/25 04:44:19;;;;;;;1.23;0.93;;;;;;;27.85;46.69;98585.53;2110291;27;20058;-49
2022/08/25 04:45:20;;;;;;;1.48;0.93;;;;;;;27.84;46.79;98583.91;2106173;27;20044;-47
2022/08/25 04:46:23;;;;;;;0.75;0.65;;;;;;;27.82;46.82;98592.34;2107908;27;20054;-46
2022/08/25 04:47:25;;;;;;;1.58;1.00;;;;;;;27.84;47.00;98590.16;2109004;28;20051;-49
2022/08/25 04:48:26;;;;;;;3.13;0.85;;;;;;;27.85;46.70;98589.06;2106608;28;20504;-46
2022/08/25 04:49:28;;;;;;;1.15;1.05;;;;;;;27.85;46.82;98590.97;2107318;28;20050;-45
2022/08/25 04:50:29;;;;;;;1.30;1.00;;;;;;;27.86;46.94;98589.91;2104248;27;20172;-50
2022/08/25 04:51:33;;;;;;;1.02;0.88;;;;;;;27.87;46.79;98585.28;2107521;27;20139;-48
2022/08/25 04:52:36;;;;;;;1.42;0.73;;;;;;;27.85;46.92;98589.06;2107067;28;20093;-47
2022/08/25 04:53:38;;;;;;;1.33;0.82;;;;;;;27.85;46.89;98585.53;2105300;27;20067;-51
2022/08/25 04:54:39;;;;;;;1.25;0.85;;;;;;;27.87;46.86;98590.72;2108762;27;20044;-48
2022/08/25 04:55:41;;;;;;;1.00;0.82;;;;;;;27.85;46.65;98583.63;2105824;28;20762;-50
2022/08/25 04:56:42;;;;;;;1.42;0.90;;;;;;;27.83;46.96;98585.81;2106889;28;20059;-49